Portada
METAR-TAF:

METAR-TAF

Aeroports :

Grand Rapids/Itasca County Airport (Gordon Newstrom Field)

Grand Rapids, Minnesota, Estats Units d'Amèrica

latitud: 47-13N, longitud: 093-31W, altitud: 413 m

Observació

L'informe es va fer fa 41 minuts, a les 00:56 UTC
Vent calma
Temperatura 21°C
Humitat 73%
Pressió 1016 hPa
Visibilitat: 16.1 km
Escasses núvols a una alçada de 12000 ft

METAR: KGPZ 200056Z AUTO 00000KT 10SM FEW120 21/16 A3001 RMK AO2 SLP162 T02060161

Hora: 20:37 (01:37 UTC)


TAF: manca

Observacions i pronòstics meteorològics de més de 4000 aeroports (METAR i TAF).

Les estacions disponibles són els punts grocs i vermells al mapa.

Posi el ratolí al punt desitjat per veure el nom de l'estació.

Feu clic per veure les observacions i els pronòstics meteorològics.

Per canviar el mapa: feu clic els botons verds amb una creu de color negre per apropar; al botó verd amb un guió per allunyar la imatge; o en les fletxes verdes per a mapes adjacents.


METAR-TAF: